TAF Text Data
IDs:
Format:
Raw Decoded Include METAR

Data at: 2014 UTC 13 Aug 2020

KAGS 131741Z 1318/1418 24005KT P6SM VCTS SCT030CB
  FM140200 20004KT P6SM SCT035 BKN100
  FM141100 00000KT 6SM BR SCT008 BKN100
  FM141300 22005KT P6SM SCT050 BKN150